sensor_id;sensor_type;location;lat;lon;timestamp;P1;durP1;ratioP1;P2;durP2;ratioP2
55493;SDS011;41355;50.390;19.096;2023-06-05T00:01:46;5.50;;;1.30;;
55493;SDS011;41355;50.390;19.096;2023-06-05T00:04:12;8.23;;;1.70;;
55493;SDS011;41355;50.390;19.096;2023-06-05T00:06:38;4.72;;;1.20;;
55493;SDS011;41355;50.390;19.096;2023-06-05T00:09:04;4.18;;;1.58;;
55493;SDS011;41355;50.390;19.096;2023-06-05T00:11:31;4.13;;;1.45;;
55493;SDS011;41355;50.390;19.096;2023-06-05T00:13:57;7.13;;;1.52;;
55493;SDS011;41355;50.390;19.096;2023-06-05T00:16:23;4.25;;;1.20;;
55493;SDS011;41355;50.390;19.096;2023-06-05T00:18:49;3.90;;;1.40;;
55493;SDS011;41355;50.390;19.096;2023-06-05T00:21:15;3.92;;;1.52;;
55493;SDS011;41355;50.390;19.096;2023-06-05T00:23:41;4.32;;;1.30;;
55493;SDS011;41355;50.390;19.096;2023-06-05T00:26:08;5.15;;;1.50;;
55493;SDS011;41355;50.390;19.096;2023-06-05T00:28:34;5.18;;;1.50;;
55493;SDS011;41355;50.390;19.096;2023-06-05T00:31:01;5.50;;;1.77;;
55493;SDS011;41355;50.390;19.096;2023-06-05T00:33:27;4.55;;;1.40;;
55493;SDS011;41355;50.390;19.096;2023-06-05T00:35:55;5.22;;;1.45;;
55493;SDS011;41355;50.390;19.096;2023-06-05T00:38:21;4.05;;;1.35;;
55493;SDS011;41355;50.390;19.096;2023-06-05T00:40:47;5.75;;;1.63;;
55493;SDS011;41355;50.390;19.096;2023-06-05T00:43:13;7.10;;;1.42;;
55493;SDS011;41355;50.390;19.096;2023-06-05T00:45:39;3.95;;;1.20;;
55493;SDS011;41355;50.390;19.096;2023-06-05T00:48:05;3.83;;;1.50;;
55493;SDS011;41355;50.390;19.096;2023-06-05T00:50:32;4.30;;;1.33;;
55493;SDS011;41355;50.390;19.096;2023-06-05T00:52:58;4.28;;;1.50;;
55493;SDS011;41355;50.390;19.096;2023-06-05T00:55:27;6.72;;;1.92;;
55493;SDS011;41355;50.390;19.096;2023-06-05T00:57:53;4.75;;;1.50;;
55493;SDS011;41355;50.390;19.096;2023-06-05T01:00:19;5.97;;;1.50;;
55493;SDS011;41355;50.390;19.096;2023-06-05T01:02:46;5.45;;;1.70;;
55493;SDS011;41355;50.390;19.096;2023-06-05T01:05:13;7.93;;;1.40;;
55493;SDS011;41355;50.390;19.096;2023-06-05T01:07:39;6.63;;;1.50;;
55493;SDS011;41355;50.390;19.096;2023-06-05T01:10:06;5.45;;;1.70;;
55493;SDS011;41355;50.390;19.096;2023-06-05T01:12:36;5.05;;;1.60;;
55493;SDS011;41355;50.390;19.096;2023-06-05T01:15:02;4.25;;;1.50;;
55493;SDS011;41355;50.390;19.096;2023-06-05T01:17:30;3.45;;;1.38;;
55493;SDS011;41355;50.390;19.096;2023-06-05T01:20:00;6.40;;;1.50;;
55493;SDS011;41355;50.390;19.096;2023-06-05T01:22:32;4.82;;;1.48;;
55493;SDS011;41355;50.390;19.096;2023-06-05T01:24:59;3.13;;;1.20;;
55493;SDS011;41355;50.390;19.096;2023-06-05T01:27:34;4.20;;;1.38;;
55493;SDS011;41355;50.390;19.096;2023-06-05T01:32:57;4.28;;;1.40;;
55493;SDS011;41355;50.390;19.096;2023-06-05T01:35:27;4.00;;;1.33;;
55493;SDS011;41355;50.390;19.096;2023-06-05T01:37:58;3.05;;;1.30;;
55493;SDS011;41355;50.390;19.096;2023-06-05T01:40:25;4.45;;;1.25;;
55493;SDS011;41355;50.390;19.096;2023-06-05T01:42:52;6.30;;;2.03;;
55493;SDS011;41355;50.390;19.096;2023-06-05T01:45:20;10.98;;;1.40;;
55493;SDS011;41355;50.390;19.096;2023-06-05T01:47:46;5.13;;;1.50;;
55493;SDS011;41355;50.390;19.096;2023-06-05T01:50:13;3.60;;;1.50;;
55493;SDS011;41355;50.390;19.096;2023-06-05T01:52:40;7.07;;;1.77;;
55493;SDS011;41355;50.390;19.096;2023-06-05T01:55:09;4.47;;;1.45;;
55493;SDS011;41355;50.390;19.096;2023-06-05T01:57:40;3.58;;;1.35;;
55493;SDS011;41355;50.390;19.096;2023-06-05T02:00:07;3.53;;;1.40;;
55493;SDS011;41355;50.390;19.096;2023-06-05T02:02:39;4.80;;;1.48;;
55493;SDS011;41355;50.390;19.096;2023-06-05T02:05:08;4.72;;;1.40;;
55493;SDS011;41355;50.390;19.096;2023-06-05T02:07:38;4.13;;;1.30;;
55493;SDS011;41355;50.390;19.096;2023-06-05T02:10:05;3.92;;;1.55;;
55493;SDS011;41355;50.390;19.096;2023-06-05T02:12:32;4.70;;;1.52;;
55493;SDS011;41355;50.390;19.096;2023-06-05T02:15:01;7.18;;;1.38;;
55493;SDS011;41355;50.390;19.096;2023-06-05T02:17:27;6.18;;;1.42;;
55493;SDS011;41355;50.390;19.096;2023-06-05T02:19:54;6.47;;;1.65;;
55493;SDS011;41355;50.390;19.096;2023-06-05T02:22:20;5.20;;;1.65;;
55493;SDS011;41355;50.390;19.096;2023-06-05T02:24:48;3.83;;;1.30;;
55493;SDS011;41355;50.390;19.096;2023-06-05T02:27:17;5.60;;;1.40;;
55493;SDS011;41355;50.390;19.096;2023-06-05T02:29:43;9.02;;;1.55;;
55493;SDS011;41355;50.390;19.096;2023-06-05T02:32:09;4.80;;;1.50;;
55493;SDS011;41355;50.390;19.096;2023-06-05T02:34:36;6.35;;;1.35;;
55493;SDS011;41355;50.390;19.096;2023-06-05T02:37:03;7.07;;;1.70;;
55493;SDS011;41355;50.390;19.096;2023-06-05T02:39:29;4.10;;;1.52;;
55493;SDS011;41355;50.390;19.096;2023-06-05T02:41:58;2.90;;;1.20;;
55493;SDS011;41355;50.390;19.096;2023-06-05T02:44:24;5.45;;;1.67;;
55493;SDS011;41355;50.390;19.096;2023-06-05T02:46:51;3.35;;;1.45;;
55493;SDS011;41355;50.390;19.096;2023-06-05T02:49:17;5.30;;;1.50;;
55493;SDS011;41355;50.390;19.096;2023-06-05T02:51:43;5.22;;;1.80;;
55493;SDS011;41355;50.390;19.096;2023-06-05T02:54:09;4.32;;;1.52;;
55493;SDS011;41355;50.390;19.096;2023-06-05T02:56:35;5.70;;;1.67;;
55493;SDS011;41355;50.390;19.096;2023-06-05T02:59:01;4.85;;;1.50;;
55493;SDS011;41355;50.390;19.096;2023-06-05T03:01:28;4.05;;;1.50;;
55493;SDS011;41355;50.390;19.096;2023-06-05T03:04:00;3.42;;;1.60;;
55493;SDS011;41355;50.390;19.096;2023-06-05T03:06:27;3.97;;;1.70;;
55493;SDS011;41355;50.390;19.096;2023-06-05T03:09:00;4.90;;;1.42;;
55493;SDS011;41355;50.390;19.096;2023-06-05T03:11:26;5.75;;;1.60;;
55493;SDS011;41355;50.390;19.096;2023-06-05T03:13:52;5.45;;;1.63;;
55493;SDS011;41355;50.390;19.096;2023-06-05T03:16:18;6.10;;;1.88;;
55493;SDS011;41355;50.390;19.096;2023-06-05T03:18:44;4.68;;;1.80;;
55493;SDS011;41355;50.390;19.096;2023-06-05T03:21:11;6.22;;;1.52;;
55493;SDS011;41355;50.390;19.096;2023-06-05T03:23:37;3.83;;;1.55;;
55493;SDS011;41355;50.390;19.096;2023-06-05T03:26:03;4.28;;;1.48;;
55493;SDS011;41355;50.390;19.096;2023-06-05T03:28:32;5.28;;;1.50;;
55493;SDS011;41355;50.390;19.096;2023-06-05T03:30:58;6.72;;;1.40;;
55493;SDS011;41355;50.390;19.096;2023-06-05T03:33:25;7.40;;;1.80;;
55493;SDS011;41355;50.390;19.096;2023-06-05T03:35:51;6.28;;;1.58;;
55493;SDS011;41355;50.390;19.096;2023-06-05T03:38:18;5.55;;;1.80;;
55493;SDS011;41355;50.390;19.096;2023-06-05T03:40:44;4.50;;;1.45;;
55493;SDS011;41355;50.390;19.096;2023-06-05T03:43:10;3.97;;;1.35;;
55493;SDS011;41355;50.390;19.096;2023-06-05T03:45:38;4.03;;;1.52;;
55493;SDS011;41355;50.390;19.096;2023-06-05T03:48:05;7.15;;;1.70;;
55493;SDS011;41355;50.390;19.096;2023-06-05T03:50:31;5.85;;;1.50;;
55493;SDS011;41355;50.390;19.096;2023-06-05T03:53:02;5.97;;;1.80;;
55493;SDS011;41355;50.390;19.096;2023-06-05T03:55:31;5.70;;;1.60;;
55493;SDS011;41355;50.390;19.096;2023-06-05T03:58:13;4.85;;;1.70;;
55493;SDS011;41355;50.390;19.096;2023-06-05T04:00:43;4.63;;;1.60;;
55493;SDS011;41355;50.390;19.096;2023-06-05T04:03:09;4.40;;;1.60;;
55493;SDS011;41355;50.390;19.096;2023-06-05T04:05:36;4.35;;;1.67;;
55493;SDS011;41355;50.390;19.096;2023-06-05T04:08:03;4.57;;;1.70;;
55493;SDS011;41355;50.390;19.096;2023-06-05T04:10:29;6.82;;;1.60;;
55493;SDS011;41355;50.390;19.096;2023-06-05T04:12:56;4.25;;;1.60;;
55493;SDS011;41355;50.390;19.096;2023-06-05T04:15:25;5.18;;;1.60;;
55493;SDS011;41355;50.390;19.096;2023-06-05T04:17:51;5.65;;;1.65;;
55493;SDS011;41355;50.390;19.096;2023-06-05T04:20:18;4.18;;;1.67;;
55493;SDS011;41355;50.390;19.096;2023-06-05T04:22:44;4.75;;;1.48;;
55493;SDS011;41355;50.390;19.096;2023-06-05T04:25:10;5.78;;;1.60;;
55493;SDS011;41355;50.390;19.096;2023-06-05T04:27:40;3.65;;;1.50;;
55493;SDS011;41355;50.390;19.096;2023-06-05T04:30:07;4.55;;;1.55;;
55493;SDS011;41355;50.390;19.096;2023-06-05T04:32:33;5.43;;;1.60;;
55493;SDS011;41355;50.390;19.096;2023-06-05T04:35:02;9.40;;;1.85;;
55493;SDS011;41355;50.390;19.096;2023-06-05T04:37:28;8.85;;;1.90;;
55493;SDS011;41355;50.390;19.096;2023-06-05T04:39:54;5.03;;;1.70;;
55493;SDS011;41355;50.390;19.096;2023-06-05T04:42:21;3.83;;;1.55;;
55493;SDS011;41355;50.390;19.096;2023-06-05T04:44:56;5.40;;;1.50;;
55493;SDS011;41355;50.390;19.096;2023-06-05T04:47:22;6.82;;;1.88;;
55493;SDS011;41355;50.390;19.096;2023-06-05T04:49:48;5.50;;;1.88;;
55493;SDS011;41355;50.390;19.096;2023-06-05T04:52:17;3.88;;;1.60;;
55493;SDS011;41355;50.390;19.096;2023-06-05T04:54:45;5.55;;;1.58;;
55493;SDS011;41355;50.390;19.096;2023-06-05T04:57:11;5.90;;;1.90;;
55493;SDS011;41355;50.390;19.096;2023-06-05T04:59:37;5.20;;;1.60;;
55493;SDS011;41355;50.390;19.096;2023-06-05T05:02:03;5.32;;;1.77;;
55493;SDS011;41355;50.390;19.096;2023-06-05T05:04:29;4.30;;;1.67;;
55493;SDS011;41355;50.390;19.096;2023-06-05T05:06:56;7.70;;;2.05;;
55493;SDS011;41355;50.390;19.096;2023-06-05T05:09:32;7.38;;;2.00;;
55493;SDS011;41355;50.390;19.096;2023-06-05T05:11:58;4.47;;;1.80;;
55493;SDS011;41355;50.390;19.096;2023-06-05T05:14:25;4.85;;;1.80;;
55493;SDS011;41355;50.390;19.096;2023-06-05T05:16:52;6.30;;;2.03;;
55493;SDS011;41355;50.390;19.096;2023-06-05T05:19:18;5.60;;;1.90;;
55493;SDS011;41355;50.390;19.096;2023-06-05T05:21:47;7.32;;;2.10;;
55493;SDS011;41355;50.390;19.096;2023-06-05T05:24:13;7.47;;;2.50;;
55493;SDS011;41355;50.390;19.096;2023-06-05T05:26:40;4.53;;;1.85;;
55493;SDS011;41355;50.390;19.096;2023-06-05T05:29:06;6.72;;;1.95;;
55493;SDS011;41355;50.390;19.096;2023-06-05T05:31:32;6.47;;;2.20;;
55493;SDS011;41355;50.390;19.096;2023-06-05T05:33:58;5.38;;;1.77;;
55493;SDS011;41355;50.390;19.096;2023-06-05T05:36:24;11.95;;;2.00;;
55493;SDS011;41355;50.390;19.096;2023-06-05T05:38:51;5.05;;;1.90;;
55493;SDS011;41355;50.390;19.096;2023-06-05T05:41:17;4.93;;;2.00;;
55493;SDS011;41355;50.390;19.096;2023-06-05T05:43:43;8.30;;;2.30;;
55493;SDS011;41355;50.390;19.096;2023-06-05T05:46:10;5.53;;;2.25;;
55493;SDS011;41355;50.390;19.096;2023-06-05T05:48:36;6.22;;;2.40;;
55493;SDS011;41355;50.390;19.096;2023-06-05T05:51:02;10.70;;;2.22;;
55493;SDS011;41355;50.390;19.096;2023-06-05T05:53:28;10.43;;;2.67;;
55493;SDS011;41355;50.390;19.096;2023-06-05T05:55:54;9.38;;;2.08;;
55493;SDS011;41355;50.390;19.096;2023-06-05T05:58:20;7.03;;;2.17;;
55493;SDS011;41355;50.390;19.096;2023-06-05T06:00:46;6.40;;;2.42;;
55493;SDS011;41355;50.390;19.096;2023-06-05T06:03:12;12.00;;;2.72;;
55493;SDS011;41355;50.390;19.096;2023-06-05T06:05:39;7.40;;;3.10;;
55493;SDS011;41355;50.390;19.096;2023-06-05T06:08:05;10.23;;;2.67;;
55493;SDS011;41355;50.390;19.096;2023-06-05T06:10:32;5.40;;;2.05;;
55493;SDS011;41355;50.390;19.096;2023-06-05T06:12:58;7.97;;;2.17;;
55493;SDS011;41355;50.390;19.096;2023-06-05T06:15:25;5.40;;;2.40;;
55493;SDS011;41355;50.390;19.096;2023-06-05T06:17:52;9.68;;;2.25;;
55493;SDS011;41355;50.390;19.096;2023-06-05T06:20:18;5.78;;;2.08;;
55493;SDS011;41355;50.390;19.096;2023-06-05T06:22:44;10.95;;;2.88;;
55493;SDS011;41355;50.390;19.096;2023-06-05T06:25:10;8.48;;;2.40;;
55493;SDS011;41355;50.390;19.096;2023-06-05T06:27:37;8.48;;;2.10;;
55493;SDS011;41355;50.390;19.096;2023-06-05T06:30:03;5.45;;;2.05;;
55493;SDS011;41355;50.390;19.096;2023-06-05T06:32:30;5.38;;;1.92;;
55493;SDS011;41355;50.390;19.096;2023-06-05T06:34:56;9.85;;;2.30;;
55493;SDS011;41355;50.390;19.096;2023-06-05T06:37:22;5.22;;;1.90;;
55493;SDS011;41355;50.390;19.096;2023-06-05T06:39:49;8.68;;;2.60;;
55493;SDS011;41355;50.390;19.096;2023-06-05T06:42:15;6.07;;;2.15;;
55493;SDS011;41355;50.390;19.096;2023-06-05T06:44:41;6.95;;;2.35;;
55493;SDS011;41355;50.390;19.096;2023-06-05T06:47:08;6.13;;;1.83;;
55493;SDS011;41355;50.390;19.096;2023-06-05T06:49:34;11.63;;;2.45;;
55493;SDS011;41355;50.390;19.096;2023-06-05T06:52:01;6.20;;;2.47;;
55493;SDS011;41355;50.390;19.096;2023-06-05T06:54:27;8.25;;;2.47;;
55493;SDS011;41355;50.390;19.096;2023-06-05T06:56:56;5.55;;;1.98;;
55493;SDS011;41355;50.390;19.096;2023-06-05T06:59:23;8.77;;;1.83;;
55493;SDS011;41355;50.390;19.096;2023-06-05T07:02:09;8.07;;;2.67;;
55493;SDS011;41355;50.390;19.096;2023-06-05T07:04:36;5.38;;;2.17;;
55493;SDS011;41355;50.390;19.096;2023-06-05T07:07:03;7.70;;;2.00;;
55493;SDS011;41355;50.390;19.096;2023-06-05T07:09:29;6.90;;;2.50;;
55493;SDS011;41355;50.390;19.096;2023-06-05T07:11:56;5.25;;;1.80;;
55493;SDS011;41355;50.390;19.096;2023-06-05T07:14:23;5.50;;;2.00;;
55493;SDS011;41355;50.390;19.096;2023-06-05T07:16:49;7.22;;;2.30;;
55493;SDS011;41355;50.390;19.096;2023-06-05T07:19:20;8.68;;;1.98;;
55493;SDS011;41355;50.390;19.096;2023-06-05T07:21:46;8.48;;;2.55;;
55493;SDS011;41355;50.390;19.096;2023-06-05T07:24:12;9.35;;;2.42;;
55493;SDS011;41355;50.390;19.096;2023-06-05T07:26:39;8.73;;;3.03;;
55493;SDS011;41355;50.390;19.096;2023-06-05T07:29:05;6.25;;;2.40;;
55493;SDS011;41355;50.390;19.096;2023-06-05T07:31:31;8.48;;;2.05;;
55493;SDS011;41355;50.390;19.096;2023-06-05T07:33:58;7.78;;;2.28;;
55493;SDS011;41355;50.390;19.096;2023-06-05T07:36:24;4.75;;;2.00;;
55493;SDS011;41355;50.390;19.096;2023-06-05T07:38:50;6.88;;;2.53;;
55493;SDS011;41355;50.390;19.096;2023-06-05T07:41:17;6.28;;;1.65;;
55493;SDS011;41355;50.390;19.096;2023-06-05T07:43:43;5.70;;;1.88;;
55493;SDS011;41355;50.390;19.096;2023-06-05T07:46:09;7.07;;;1.80;;
55493;SDS011;41355;50.390;19.096;2023-06-05T07:48:35;6.28;;;2.50;;
55493;SDS011;41355;50.390;19.096;2023-06-05T07:51:01;5.70;;;1.92;;
55493;SDS011;41355;50.390;19.096;2023-06-05T07:53:27;10.27;;;2.05;;
55493;SDS011;41355;50.390;19.096;2023-06-05T07:55:53;7.35;;;2.30;;
55493;SDS011;41355;50.390;19.096;2023-06-05T07:58:20;7.05;;;2.30;;
55493;SDS011;41355;50.390;19.096;2023-06-05T08:00:47;8.82;;;2.70;;
55493;SDS011;41355;50.390;19.096;2023-06-05T08:03:16;8.93;;;2.75;;
55493;SDS011;41355;50.390;19.096;2023-06-05T08:05:48;7.95;;;1.90;;
55493;SDS011;41355;50.390;19.096;2023-06-05T08:08:15;7.05;;;2.55;;
55493;SDS011;41355;50.390;19.096;2023-06-05T08:10:42;5.80;;;2.22;;
55493;SDS011;41355;50.390;19.096;2023-06-05T08:13:08;8.15;;;3.00;;
55493;SDS011;41355;50.390;19.096;2023-06-05T08:15:35;8.05;;;2.75;;
55493;SDS011;41355;50.390;19.096;2023-06-05T08:18:01;6.03;;;2.30;;
55493;SDS011;41355;50.390;19.096;2023-06-05T08:20:27;4.03;;;1.60;;
55493;SDS011;41355;50.390;19.096;2023-06-05T08:22:54;4.72;;;1.63;;
55493;SDS011;41355;50.390;19.096;2023-06-05T08:25:23;7.25;;;2.40;;
55493;SDS011;41355;50.390;19.096;2023-06-05T08:27:49;6.40;;;2.15;;
55493;SDS011;41355;50.390;19.096;2023-06-05T08:30:15;6.82;;;2.10;;
55493;SDS011;41355;50.390;19.096;2023-06-05T08:32:42;7.53;;;2.17;;
55493;SDS011;41355;50.390;19.096;2023-06-05T08:35:08;10.50;;;2.50;;
55493;SDS011;41355;50.390;19.096;2023-06-05T08:37:35;7.15;;;2.22;;
55493;SDS011;41355;50.390;19.096;2023-06-05T08:40:02;8.13;;;2.28;;
55493;SDS011;41355;50.390;19.096;2023-06-05T08:42:31;6.72;;;2.15;;
55493;SDS011;41355;50.390;19.096;2023-06-05T08:44:58;6.45;;;1.98;;
55493;SDS011;41355;50.390;19.096;2023-06-05T08:47:25;8.68;;;2.17;;
55493;SDS011;41355;50.390;19.096;2023-06-05T08:49:54;5.32;;;2.00;;
55493;SDS011;41355;50.390;19.096;2023-06-05T08:52:21;4.85;;;2.10;;
55493;SDS011;41355;50.390;19.096;2023-06-05T08:54:48;5.43;;;2.20;;
55493;SDS011;41355;50.390;19.096;2023-06-05T08:57:15;9.77;;;2.65;;
55493;SDS011;41355;50.390;19.096;2023-06-05T08:59:41;7.85;;;2.80;;
55493;SDS011;41355;50.390;19.096;2023-06-05T09:02:08;7.13;;;2.50;;
55493;SDS011;41355;50.390;19.096;2023-06-05T09:04:34;5.72;;;1.83;;
55493;SDS011;41355;50.390;19.096;2023-06-05T09:07:00;4.68;;;1.90;;
55493;SDS011;41355;50.390;19.096;2023-06-05T09:09:26;6.47;;;1.83;;
55493;SDS011;41355;50.390;19.096;2023-06-05T09:12:05;4.45;;;1.80;;
55493;SDS011;41355;50.390;19.096;2023-06-05T09:14:32;6.25;;;2.28;;
55493;SDS011;41355;50.390;19.096;2023-06-05T09:17:00;5.25;;;2.30;;
55493;SDS011;41355;50.390;19.096;2023-06-05T09:19:39;5.13;;;1.48;;
55493;SDS011;41355;50.390;19.096;2023-06-05T09:22:06;6.50;;;2.03;;
55493;SDS011;41355;50.390;19.096;2023-06-05T09:24:33;11.65;;;2.92;;
55493;SDS011;41355;50.390;19.096;2023-06-05T09:27:00;7.38;;;2.13;;
55493;SDS011;41355;50.390;19.096;2023-06-05T09:29:27;4.03;;;1.80;;
55493;SDS011;41355;50.390;19.096;2023-06-05T09:31:54;6.38;;;2.17;;
55493;SDS011;41355;50.390;19.096;2023-06-05T09:34:39;6.63;;;2.03;;
55493;SDS011;41355;50.390;19.096;2023-06-05T09:37:09;9.77;;;2.63;;
55493;SDS011;41355;50.390;19.096;2023-06-05T09:39:35;6.40;;;2.17;;
55493;SDS011;41355;50.390;19.096;2023-06-05T09:42:02;8.07;;;2.53;;
55493;SDS011;41355;50.390;19.096;2023-06-05T09:44:28;9.07;;;2.75;;
55493;SDS011;41355;50.390;19.096;2023-06-05T09:46:55;8.45;;;3.25;;
55493;SDS011;41355;50.390;19.096;2023-06-05T09:49:32;7.25;;;2.30;;
55493;SDS011;41355;50.390;19.096;2023-06-05T09:51:59;6.60;;;2.30;;
55493;SDS011;41355;50.390;19.096;2023-06-05T09:54:26;6.22;;;2.40;;
55493;SDS011;41355;50.390;19.096;2023-06-05T09:56:55;6.97;;;2.65;;
55493;SDS011;41355;50.390;19.096;2023-06-05T09:59:22;9.23;;;2.95;;
55493;SDS011;41355;50.390;19.096;2023-06-05T10:01:49;9.45;;;2.90;;
55493;SDS011;41355;50.390;19.096;2023-06-05T10:04:16;9.45;;;2.58;;
55493;SDS011;41355;50.390;19.096;2023-06-05T10:06:42;6.57;;;2.20;;
55493;SDS011;41355;50.390;19.096;2023-06-05T10:09:08;7.93;;;2.40;;
55493;SDS011;41355;50.390;19.096;2023-06-05T10:11:35;6.63;;;2.25;;
55493;SDS011;41355;50.390;19.096;2023-06-05T10:14:01;7.05;;;2.40;;
55493;SDS011;41355;50.390;19.096;2023-06-05T10:16:28;7.90;;;2.13;;
55493;SDS011;41355;50.390;19.096;2023-06-05T10:18:55;6.72;;;2.10;;
55493;SDS011;41355;50.390;19.096;2023-06-05T10:21:22;10.10;;;2.60;;
55493;SDS011;41355;50.390;19.096;2023-06-05T10:23:49;7.57;;;2.50;;
55493;SDS011;41355;50.390;19.096;2023-06-05T10:31:38;6.25;;;2.65;;
55493;SDS011;41355;50.390;19.096;2023-06-05T10:34:14;8.63;;;2.70;;
55493;SDS011;41355;50.390;19.096;2023-06-05T10:36:56;7.40;;;2.80;;
55493;SDS011;41355;50.390;19.096;2023-06-05T10:39:26;7.47;;;2.10;;
55493;SDS011;41355;50.390;19.096;2023-06-05T10:41:54;5.72;;;2.35;;
55493;SDS011;41355;50.390;19.096;2023-06-05T10:44:37;6.95;;;2.25;;
55493;SDS011;41355;50.390;19.096;2023-06-05T10:47:29;5.68;;;2.40;;
55493;SDS011;41355;50.390;19.096;2023-06-05T10:52:35;6.15;;;2.30;;
55493;SDS011;41355;50.390;19.096;2023-06-05T10:55:01;5.93;;;2.10;;
55493;SDS011;41355;50.390;19.096;2023-06-05T10:57:49;4.57;;;2.15;;
55493;SDS011;41355;50.390;19.096;2023-06-05T11:00:14;7.88;;;2.83;;
55493;SDS011;41355;50.390;19.096;2023-06-05T11:02:46;7.88;;;2.45;;
55493;SDS011;41355;50.390;19.096;2023-06-05T11:05:12;5.55;;;2.05;;
55493;SDS011;41355;50.390;19.096;2023-06-05T11:07:39;8.73;;;2.30;;
55493;SDS011;41355;50.390;19.096;2023-06-05T11:10:09;5.60;;;2.38;;
55493;SDS011;41355;50.390;19.096;2023-06-05T11:15:07;7.20;;;2.25;;
55493;SDS011;41355;50.390;19.096;2023-06-05T11:17:34;6.15;;;2.35;;
55493;SDS011;41355;50.390;19.096;2023-06-05T11:20:01;5.45;;;2.40;;
55493;SDS011;41355;50.390;19.096;2023-06-05T11:22:32;7.20;;;2.40;;
55493;SDS011;41355;50.390;19.096;2023-06-05T11:30:11;6.75;;;2.50;;
55493;SDS011;41355;50.390;19.096;2023-06-05T11:32:37;6.97;;;2.92;;
55493;SDS011;41355;50.390;19.096;2023-06-05T11:35:04;4.70;;;2.40;;
55493;SDS011;41355;50.390;19.096;2023-06-05T11:37:30;8.43;;;2.60;;
55493;SDS011;41355;50.390;19.096;2023-06-05T11:40:00;5.22;;;2.22;;
55493;SDS011;41355;50.390;19.096;2023-06-05T11:42:30;10.32;;;2.65;;
55493;SDS011;41355;50.390;19.096;2023-06-05T11:44:56;6.93;;;2.80;;
55493;SDS011;41355;50.390;19.096;2023-06-05T11:47:25;9.98;;;3.15;;
55493;SDS011;41355;50.390;19.096;2023-06-05T11:49:53;10.07;;;2.75;;
55493;SDS011;41355;50.390;19.096;2023-06-05T11:52:19;7.72;;;2.50;;
55493;SDS011;41355;50.390;19.096;2023-06-05T11:54:47;8.02;;;2.45;;
55493;SDS011;41355;50.390;19.096;2023-06-05T11:57:38;6.32;;;2.20;;
55493;SDS011;41355;50.390;19.096;2023-06-05T12:00:04;8.05;;;2.80;;
55493;SDS011;41355;50.390;19.096;2023-06-05T12:02:31;8.65;;;2.53;;
55493;SDS011;41355;50.390;19.096;2023-06-05T12:04:58;6.88;;;2.70;;
55493;SDS011;41355;50.390;19.096;2023-06-05T12:07:28;7.25;;;2.33;;
55493;SDS011;41355;50.390;19.096;2023-06-05T12:09:54;12.60;;;2.60;;
55493;SDS011;41355;50.390;19.096;2023-06-05T12:12:20;7.25;;;2.58;;
55493;SDS011;41355;50.390;19.096;2023-06-05T12:14:46;7.13;;;2.17;;
55493;SDS011;41355;50.390;19.096;2023-06-05T12:17:12;7.13;;;2.42;;
55493;SDS011;41355;50.390;19.096;2023-06-05T12:19:39;8.77;;;2.25;;
55493;SDS011;41355;50.390;19.096;2023-06-05T12:22:06;4.97;;;2.40;;
55493;SDS011;41355;50.390;19.096;2023-06-05T12:24:34;6.88;;;2.33;;
55493;SDS011;41355;50.390;19.096;2023-06-05T12:27:01;7.47;;;2.67;;
55493;SDS011;41355;50.390;19.096;2023-06-05T12:29:29;9.63;;;2.80;;
55493;SDS011;41355;50.390;19.096;2023-06-05T12:31:56;7.65;;;2.40;;
55493;SDS011;41355;50.390;19.096;2023-06-05T12:37:07;8.85;;;2.72;;
55493;SDS011;41355;50.390;19.096;2023-06-05T12:39:33;10.63;;;3.00;;
55493;SDS011;41355;50.390;19.096;2023-06-05T12:42:00;5.88;;;2.65;;
55493;SDS011;41355;50.390;19.096;2023-06-05T12:44:26;8.23;;;2.92;;
55493;SDS011;41355;50.390;19.096;2023-06-05T12:46:52;10.57;;;3.20;;
55493;SDS011;41355;50.390;19.096;2023-06-05T12:49:18;9.10;;;3.03;;
55493;SDS011;41355;50.390;19.096;2023-06-05T12:51:44;7.60;;;3.05;;
55493;SDS011;41355;50.390;19.096;2023-06-05T12:54:10;5.88;;;2.78;;
55493;SDS011;41355;50.390;19.096;2023-06-05T12:56:36;9.65;;;3.05;;
55493;SDS011;41355;50.390;19.096;2023-06-05T12:59:03;9.18;;;2.65;;
55493;SDS011;41355;50.390;19.096;2023-06-05T13:01:29;9.23;;;3.20;;
55493;SDS011;41355;50.390;19.096;2023-06-05T13:03:56;6.78;;;2.60;;
55493;SDS011;41355;50.390;19.096;2023-06-05T13:06:22;5.60;;;2.55;;
55493;SDS011;41355;50.390;19.096;2023-06-05T13:08:48;6.53;;;2.75;;
55493;SDS011;41355;50.390;19.096;2023-06-05T13:11:15;8.82;;;2.80;;
55493;SDS011;41355;50.390;19.096;2023-06-05T13:13:42;7.22;;;2.90;;
55493;SDS011;41355;50.390;19.096;2023-06-05T13:16:09;7.40;;;2.78;;
55493;SDS011;41355;50.390;19.096;2023-06-05T13:18:35;6.90;;;2.60;;
55493;SDS011;41355;50.390;19.096;2023-06-05T13:21:02;6.85;;;2.88;;
55493;SDS011;41355;50.390;19.096;2023-06-05T13:23:29;6.70;;;3.08;;
55493;SDS011;41355;50.390;19.096;2023-06-05T13:25:55;12.63;;;3.10;;
55493;SDS011;41355;50.390;19.096;2023-06-05T13:28:21;6.57;;;2.88;;
55493;SDS011;41355;50.390;19.096;2023-06-05T13:30:47;5.65;;;2.75;;
55493;SDS011;41355;50.390;19.096;2023-06-05T13:33:13;7.05;;;2.80;;
55493;SDS011;41355;50.390;19.096;2023-06-05T13:35:39;8.68;;;2.70;;
55493;SDS011;41355;50.390;19.096;2023-06-05T13:38:06;8.00;;;2.92;;
55493;SDS011;41355;50.390;19.096;2023-06-05T13:40:32;9.02;;;2.75;;
55493;SDS011;41355;50.390;19.096;2023-06-05T13:43:02;7.15;;;2.95;;
55493;SDS011;41355;50.390;19.096;2023-06-05T13:45:47;7.05;;;3.35;;
55493;SDS011;41355;50.390;19.096;2023-06-05T13:49:04;5.18;;;2.22;;
55493;SDS011;41355;50.390;19.096;2023-06-05T13:54:39;7.60;;;2.80;;
55493;SDS011;41355;50.390;19.096;2023-06-05T14:00:34;7.25;;;2.85;;
55493;SDS011;41355;50.390;19.096;2023-06-05T14:03:00;8.13;;;2.95;;
55493;SDS011;41355;50.390;19.096;2023-06-05T14:05:26;9.93;;;3.25;;
55493;SDS011;41355;50.390;19.096;2023-06-05T14:07:54;10.10;;;3.17;;
55493;SDS011;41355;50.390;19.096;2023-06-05T14:10:21;9.07;;;3.20;;
55493;SDS011;41355;50.390;19.096;2023-06-05T14:12:48;7.30;;;2.75;;
55493;SDS011;41355;50.390;19.096;2023-06-05T14:15:14;11.43;;;3.20;;
55493;SDS011;41355;50.390;19.096;2023-06-05T14:17:42;11.20;;;3.22;;
55493;SDS011;41355;50.390;19.096;2023-06-05T14:20:08;6.78;;;3.05;;
55493;SDS011;41355;50.390;19.096;2023-06-05T14:22:34;8.23;;;3.20;;
55493;SDS011;41355;50.390;19.096;2023-06-05T14:25:00;8.43;;;2.80;;
55493;SDS011;41355;50.390;19.096;2023-06-05T14:27:27;8.63;;;3.50;;
55493;SDS011;41355;50.390;19.096;2023-06-05T14:29:53;6.30;;;2.78;;
55493;SDS011;41355;50.390;19.096;2023-06-05T14:32:19;8.57;;;2.72;;
55493;SDS011;41355;50.390;19.096;2023-06-05T14:34:45;8.10;;;2.90;;
55493;SDS011;41355;50.390;19.096;2023-06-05T14:37:12;7.32;;;3.00;;
55493;SDS011;41355;50.390;19.096;2023-06-05T14:39:38;7.90;;;3.13;;
55493;SDS011;41355;50.390;19.096;2023-06-05T14:42:04;5.82;;;2.88;;
55493;SDS011;41355;50.390;19.096;2023-06-05T14:44:31;7.63;;;3.17;;
55493;SDS011;41355;50.390;19.096;2023-06-05T14:46:57;6.68;;;3.10;;
55493;SDS011;41355;50.390;19.096;2023-06-05T14:49:23;6.85;;;3.03;;
55493;SDS011;41355;50.390;19.096;2023-06-05T14:51:50;8.05;;;2.72;;
55493;SDS011;41355;50.390;19.096;2023-06-05T14:54:16;8.60;;;2.80;;
55493;SDS011;41355;50.390;19.096;2023-06-05T14:56:42;6.85;;;2.80;;
55493;SDS011;41355;50.390;19.096;2023-06-05T14:59:08;6.10;;;2.72;;
55493;SDS011;41355;50.390;19.096;2023-06-05T15:01:34;6.43;;;2.58;;
55493;SDS011;41355;50.390;19.096;2023-06-05T15:04:01;9.73;;;2.85;;